sensor_id;sensor_type;location;lat;lon;timestamp;P1;durP1;ratioP1;P2;durP2;ratioP2
28910;SDS011;16028;42.642;23.310;2022-09-23T00:02:24;5.63;;;4.85;;
28910;SDS011;16028;42.642;23.310;2022-09-23T00:04:51;5.60;;;5.03;;
28910;SDS011;16028;42.642;23.310;2022-09-23T00:07:18;5.28;;;4.68;;
28910;SDS011;16028;42.642;23.310;2022-09-23T00:09:47;5.32;;;4.82;;
28910;SDS011;16028;42.642;23.310;2022-09-23T00:12:15;5.20;;;4.70;;
28910;SDS011;16028;42.642;23.310;2022-09-23T00:14:42;5.50;;;5.00;;
28910;SDS011;16028;42.642;23.310;2022-09-23T00:17:09;6.10;;;5.00;;
28910;SDS011;16028;42.642;23.310;2022-09-23T00:19:36;5.50;;;4.95;;
28910;SDS011;16028;42.642;23.310;2022-09-23T00:22:04;5.20;;;4.70;;
28910;SDS011;16028;42.642;23.310;2022-09-23T00:24:32;4.97;;;4.45;;
28910;SDS011;16028;42.642;23.310;2022-09-23T00:27:00;3.90;;;3.60;;
28910;SDS011;16028;42.642;23.310;2022-09-23T00:29:27;5.57;;;4.63;;
28910;SDS011;16028;42.642;23.310;2022-09-23T00:31:54;5.05;;;4.55;;
28910;SDS011;16028;42.642;23.310;2022-09-23T00:34:20;5.50;;;4.55;;
28910;SDS011;16028;42.642;23.310;2022-09-23T00:36:47;4.70;;;4.30;;
28910;SDS011;16028;42.642;23.310;2022-09-23T00:39:14;4.45;;;4.05;;
28910;SDS011;16028;42.642;23.310;2022-09-23T00:41:41;4.75;;;4.25;;
28910;SDS011;16028;42.642;23.310;2022-09-23T00:47:16;4.60;;;4.20;;
28910;SDS011;16028;42.642;23.310;2022-09-23T00:49:48;7.30;;;4.22;;
28910;SDS011;16028;42.642;23.310;2022-09-23T00:52:19;4.38;;;3.97;;
28910;SDS011;16028;42.642;23.310;2022-09-23T00:54:49;4.30;;;3.90;;
28910;SDS011;16028;42.642;23.310;2022-09-23T00:57:20;4.88;;;3.85;;
28910;SDS011;16028;42.642;23.310;2022-09-23T00:59:50;4.70;;;3.50;;
28910;SDS011;16028;42.642;23.310;2022-09-23T01:02:17;4.20;;;3.65;;
28910;SDS011;16028;42.642;23.310;2022-09-23T01:04:46;3.85;;;3.28;;
28910;SDS011;16028;42.642;23.310;2022-09-23T01:07:14;3.83;;;3.50;;
28910;SDS011;16028;42.642;23.310;2022-09-23T01:09:41;3.78;;;3.33;;
28910;SDS011;16028;42.642;23.310;2022-09-23T01:12:14;5.22;;;3.65;;
28910;SDS011;16028;42.642;23.310;2022-09-23T01:14:55;4.30;;;3.90;;
28910;SDS011;16028;42.642;23.310;2022-09-23T01:17:34;4.70;;;3.88;;
28910;SDS011;16028;42.642;23.310;2022-09-23T01:20:21;5.07;;;4.57;;
28910;SDS011;16028;42.642;23.310;2022-09-23T01:23:13;5.63;;;5.05;;
28910;SDS011;16028;42.642;23.310;2022-09-23T01:25:58;7.28;;;6.07;;
28910;SDS011;16028;42.642;23.310;2022-09-23T01:28:47;7.05;;;5.97;;
28910;SDS011;16028;42.642;23.310;2022-09-23T01:31:28;7.30;;;6.05;;
28910;SDS011;16028;42.642;23.310;2022-09-23T01:34:02;7.43;;;6.32;;
28910;SDS011;16028;42.642;23.310;2022-09-23T01:36:38;8.73;;;6.53;;
28910;SDS011;16028;42.642;23.310;2022-09-23T01:39:09;6.45;;;5.75;;
28910;SDS011;16028;42.642;23.310;2022-09-23T01:41:58;9.57;;;6.65;;
28910;SDS011;16028;42.642;23.310;2022-09-23T01:44:31;6.65;;;5.95;;
28910;SDS011;16028;42.642;23.310;2022-09-23T01:47:07;7.75;;;5.55;;
28910;SDS011;16028;42.642;23.310;2022-09-23T01:49:41;6.70;;;5.63;;
28910;SDS011;16028;42.642;23.310;2022-09-23T01:52:13;6.75;;;5.57;;
28910;SDS011;16028;42.642;23.310;2022-09-23T01:54:49;9.02;;;6.03;;
28910;SDS011;16028;42.642;23.310;2022-09-23T01:57:20;7.20;;;6.00;;
28910;SDS011;16028;42.642;23.310;2022-09-23T01:59:51;5.68;;;4.90;;
28910;SDS011;16028;42.642;23.310;2022-09-23T02:02:25;6.95;;;5.05;;
28910;SDS011;16028;42.642;23.310;2022-09-23T02:04:56;7.72;;;5.50;;
28910;SDS011;16028;42.642;23.310;2022-09-23T02:07:28;7.93;;;5.68;;
28910;SDS011;16028;42.642;23.310;2022-09-23T02:10:02;7.20;;;5.80;;
28910;SDS011;16028;42.642;23.310;2022-09-23T02:12:32;6.45;;;5.38;;
28910;SDS011;16028;42.642;23.310;2022-09-23T02:15:03;6.28;;;5.15;;
28910;SDS011;16028;42.642;23.310;2022-09-23T02:17:35;6.00;;;5.40;;
28910;SDS011;16028;42.642;23.310;2022-09-23T02:20:08;7.38;;;5.82;;
28910;SDS011;16028;42.642;23.310;2022-09-23T02:22:40;6.43;;;5.40;;
28910;SDS011;16028;42.642;23.310;2022-09-23T02:25:14;5.65;;;5.05;;
28910;SDS011;16028;42.642;23.310;2022-09-23T02:27:43;5.47;;;4.95;;
28910;SDS011;16028;42.642;23.310;2022-09-23T02:30:16;6.72;;;5.63;;
28910;SDS011;16028;42.642;23.310;2022-09-23T02:32:50;8.48;;;5.45;;
28910;SDS011;16028;42.642;23.310;2022-09-23T02:35:22;5.97;;;5.38;;
28910;SDS011;16028;42.642;23.310;2022-09-23T02:37:59;6.97;;;6.10;;
28910;SDS011;16028;42.642;23.310;2022-09-23T02:40:33;8.80;;;6.22;;
28910;SDS011;16028;42.642;23.310;2022-09-23T02:43:04;7.68;;;6.38;;
28910;SDS011;16028;42.642;23.310;2022-09-23T02:45:35;7.80;;;5.80;;
28910;SDS011;16028;42.642;23.310;2022-09-23T02:48:05;9.32;;;6.70;;
28910;SDS011;16028;42.642;23.310;2022-09-23T02:50:34;6.70;;;5.97;;
28910;SDS011;16028;42.642;23.310;2022-09-23T02:53:03;9.63;;;5.95;;
28910;SDS011;16028;42.642;23.310;2022-09-23T02:55:31;6.22;;;5.53;;
28910;SDS011;16028;42.642;23.310;2022-09-23T02:57:59;8.52;;;5.72;;
28910;SDS011;16028;42.642;23.310;2022-09-23T03:00:32;8.73;;;5.68;;
28910;SDS011;16028;42.642;23.310;2022-09-23T03:03:21;6.00;;;4.80;;
28910;SDS011;16028;42.642;23.310;2022-09-23T03:05:58;8.35;;;5.82;;
28910;SDS011;16028;42.642;23.310;2022-09-23T03:08:33;8.55;;;5.80;;
28910;SDS011;16028;42.642;23.310;2022-09-23T03:11:09;6.90;;;6.00;;
28910;SDS011;16028;42.642;23.310;2022-09-23T03:13:44;7.80;;;5.85;;
28910;SDS011;16028;42.642;23.310;2022-09-23T03:16:21;7.53;;;5.63;;
28910;SDS011;16028;42.642;23.310;2022-09-23T03:18:58;6.75;;;5.43;;
28910;SDS011;16028;42.642;23.310;2022-09-23T03:21:33;7.40;;;6.28;;
28910;SDS011;16028;42.642;23.310;2022-09-23T03:24:06;8.77;;;6.00;;
28910;SDS011;16028;42.642;23.310;2022-09-23T03:26:36;8.00;;;6.88;;
28910;SDS011;16028;42.642;23.310;2022-09-23T03:29:06;9.25;;;6.38;;
28910;SDS011;16028;42.642;23.310;2022-09-23T03:31:35;12.85;;;7.13;;
28910;SDS011;16028;42.642;23.310;2022-09-23T03:34:08;8.90;;;6.85;;
28910;SDS011;16028;42.642;23.310;2022-09-23T03:36:40;9.70;;;6.22;;
28910;SDS011;16028;42.642;23.310;2022-09-23T03:39:24;9.27;;;6.93;;
28910;SDS011;16028;42.642;23.310;2022-09-23T03:41:56;9.55;;;7.22;;
28910;SDS011;16028;42.642;23.310;2022-09-23T03:44:27;7.70;;;6.50;;
28910;SDS011;16028;42.642;23.310;2022-09-23T03:46:57;8.40;;;6.70;;
28910;SDS011;16028;42.642;23.310;2022-09-23T03:49:27;8.85;;;6.70;;
28910;SDS011;16028;42.642;23.310;2022-09-23T03:51:58;8.93;;;6.47;;
28910;SDS011;16028;42.642;23.310;2022-09-23T03:54:27;8.00;;;6.47;;
28910;SDS011;16028;42.642;23.310;2022-09-23T03:56:54;9.15;;;6.60;;
28910;SDS011;16028;42.642;23.310;2022-09-23T03:59:22;10.32;;;6.78;;
28910;SDS011;16028;42.642;23.310;2022-09-23T04:01:49;11.88;;;7.00;;
28910;SDS011;16028;42.642;23.310;2022-09-23T04:04:16;10.25;;;7.00;;
28910;SDS011;16028;42.642;23.310;2022-09-23T04:06:45;12.52;;;6.72;;
28910;SDS011;16028;42.642;23.310;2022-09-23T04:09:12;10.75;;;7.35;;
28910;SDS011;16028;42.642;23.310;2022-09-23T04:11:38;10.85;;;7.53;;
28910;SDS011;16028;42.642;23.310;2022-09-23T04:14:05;13.20;;;7.78;;
28910;SDS011;16028;42.642;23.310;2022-09-23T04:16:34;13.13;;;8.38;;
28910;SDS011;16028;42.642;23.310;2022-09-23T04:19:07;10.13;;;7.30;;
28910;SDS011;16028;42.642;23.310;2022-09-23T04:21:34;23.52;;;8.23;;
28910;SDS011;16028;42.642;23.310;2022-09-23T04:24:02;13.57;;;8.40;;
28910;SDS011;16028;42.642;23.310;2022-09-23T04:26:30;17.35;;;8.82;;
28910;SDS011;16028;42.642;23.310;2022-09-23T04:28:58;19.23;;;10.20;;
28910;SDS011;16028;42.642;23.310;2022-09-23T04:31:25;14.07;;;9.45;;
28910;SDS011;16028;42.642;23.310;2022-09-23T04:33:52;15.63;;;9.55;;
28910;SDS011;16028;42.642;23.310;2022-09-23T04:36:20;15.38;;;9.88;;
28910;SDS011;16028;42.642;23.310;2022-09-23T04:38:47;18.85;;;10.30;;
28910;SDS011;16028;42.642;23.310;2022-09-23T04:41:16;12.48;;;9.60;;
28910;SDS011;16028;42.642;23.310;2022-09-23T04:43:44;19.10;;;10.98;;
28910;SDS011;16028;42.642;23.310;2022-09-23T04:46:12;14.68;;;9.80;;
28910;SDS011;16028;42.642;23.310;2022-09-23T04:48:40;16.95;;;10.57;;
28910;SDS011;16028;42.642;23.310;2022-09-23T04:51:10;13.18;;;9.68;;
28910;SDS011;16028;42.642;23.310;2022-09-23T04:53:42;15.75;;;9.80;;
28910;SDS011;16028;42.642;23.310;2022-09-23T04:56:10;14.38;;;8.65;;
28910;SDS011;16028;42.642;23.310;2022-09-23T04:58:40;14.88;;;8.60;;
28910;SDS011;16028;42.642;23.310;2022-09-23T05:01:10;23.30;;;9.43;;
28910;SDS011;16028;42.642;23.310;2022-09-23T05:03:40;13.07;;;9.32;;
28910;SDS011;16028;42.642;23.310;2022-09-23T05:06:08;18.27;;;9.88;;
28910;SDS011;16028;42.642;23.310;2022-09-23T05:08:37;13.20;;;9.65;;
28910;SDS011;16028;42.642;23.310;2022-09-23T05:11:04;12.70;;;9.15;;
28910;SDS011;16028;42.642;23.310;2022-09-23T05:13:33;14.55;;;10.18;;
28910;SDS011;16028;42.642;23.310;2022-09-23T05:16:02;12.82;;;8.98;;
28910;SDS011;16028;42.642;23.310;2022-09-23T05:18:32;16.60;;;10.10;;
28910;SDS011;16028;42.642;23.310;2022-09-23T05:20:59;12.25;;;9.50;;
28910;SDS011;16028;42.642;23.310;2022-09-23T05:23:26;14.95;;;10.52;;
28910;SDS011;16028;42.642;23.310;2022-09-23T05:25:57;14.35;;;10.65;;
28910;SDS011;16028;42.642;23.310;2022-09-23T05:28:26;15.18;;;10.52;;
28910;SDS011;16028;42.642;23.310;2022-09-23T05:30:59;16.10;;;10.23;;
28910;SDS011;16028;42.642;23.310;2022-09-23T05:33:29;16.00;;;9.70;;
28910;SDS011;16028;42.642;23.310;2022-09-23T05:35:56;14.65;;;9.82;;
28910;SDS011;16028;42.642;23.310;2022-09-23T05:38:24;16.92;;;9.82;;
28910;SDS011;16028;42.642;23.310;2022-09-23T05:40:54;13.45;;;9.57;;
28910;SDS011;16028;42.642;23.310;2022-09-23T05:43:21;15.18;;;9.48;;
28910;SDS011;16028;42.642;23.310;2022-09-23T05:45:49;12.75;;;10.18;;
28910;SDS011;16028;42.642;23.310;2022-09-23T05:48:17;13.57;;;9.57;;
28910;SDS011;16028;42.642;23.310;2022-09-23T05:50:50;11.93;;;9.25;;
28910;SDS011;16028;42.642;23.310;2022-09-23T05:53:18;13.10;;;9.68;;
28910;SDS011;16028;42.642;23.310;2022-09-23T05:55:44;13.45;;;9.88;;
28910;SDS011;16028;42.642;23.310;2022-09-23T05:58:11;14.40;;;9.35;;
28910;SDS011;16028;42.642;23.310;2022-09-23T06:00:39;10.77;;;8.77;;
28910;SDS011;16028;42.642;23.310;2022-09-23T06:03:06;14.10;;;9.88;;
28910;SDS011;16028;42.642;23.310;2022-09-23T06:05:42;15.68;;;9.02;;
28910;SDS011;16028;42.642;23.310;2022-09-23T06:08:08;12.00;;;8.88;;
28910;SDS011;16028;42.642;23.310;2022-09-23T06:10:36;12.30;;;8.93;;
28910;SDS011;16028;42.642;23.310;2022-09-23T06:13:04;11.15;;;7.82;;
28910;SDS011;16028;42.642;23.310;2022-09-23T06:15:31;10.65;;;8.27;;
28910;SDS011;16028;42.642;23.310;2022-09-23T06:17:58;13.10;;;7.22;;
28910;SDS011;16028;42.642;23.310;2022-09-23T06:20:26;10.98;;;7.68;;
28910;SDS011;16028;42.642;23.310;2022-09-23T06:23:00;9.02;;;6.97;;
28910;SDS011;16028;42.642;23.310;2022-09-23T06:25:29;9.43;;;6.85;;
28910;SDS011;16028;42.642;23.310;2022-09-23T06:27:57;9.38;;;6.90;;
28910;SDS011;16028;42.642;23.310;2022-09-23T06:30:24;8.02;;;6.82;;
28910;SDS011;16028;42.642;23.310;2022-09-23T06:32:52;10.40;;;6.22;;
28910;SDS011;16028;42.642;23.310;2022-09-23T06:35:21;7.72;;;6.63;;
28910;SDS011;16028;42.642;23.310;2022-09-23T06:37:49;7.43;;;5.70;;
28910;SDS011;16028;42.642;23.310;2022-09-23T06:40:18;7.03;;;5.78;;
28910;SDS011;16028;42.642;23.310;2022-09-23T06:42:46;6.80;;;5.85;;
28910;SDS011;16028;42.642;23.310;2022-09-23T06:45:22;8.07;;;6.18;;
28910;SDS011;16028;42.642;23.310;2022-09-23T06:47:52;10.88;;;6.60;;
28910;SDS011;16028;42.642;23.310;2022-09-23T06:50:20;8.93;;;6.55;;
28910;SDS011;16028;42.642;23.310;2022-09-23T06:52:49;8.45;;;5.80;;
28910;SDS011;16028;42.642;23.310;2022-09-23T06:55:18;7.82;;;5.80;;
28910;SDS011;16028;42.642;23.310;2022-09-23T06:57:45;6.70;;;5.97;;
28910;SDS011;16028;42.642;23.310;2022-09-23T07:00:12;8.50;;;5.90;;
28910;SDS011;16028;42.642;23.310;2022-09-23T07:02:39;7.80;;;6.35;;
28910;SDS011;16028;42.642;23.310;2022-09-23T07:05:07;7.30;;;6.15;;
28910;SDS011;16028;42.642;23.310;2022-09-23T07:07:34;8.25;;;6.43;;
28910;SDS011;16028;42.642;23.310;2022-09-23T07:10:01;10.10;;;6.45;;
28910;SDS011;16028;42.642;23.310;2022-09-23T07:12:31;8.68;;;6.57;;
28910;SDS011;16028;42.642;23.310;2022-09-23T07:14:58;6.50;;;5.32;;
28910;SDS011;16028;42.642;23.310;2022-09-23T07:17:25;9.23;;;6.13;;
28910;SDS011;16028;42.642;23.310;2022-09-23T07:19:51;7.75;;;5.97;;
28910;SDS011;16028;42.642;23.310;2022-09-23T07:22:19;8.80;;;5.43;;
28910;SDS011;16028;42.642;23.310;2022-09-23T07:24:46;5.22;;;4.55;;
28910;SDS011;16028;42.642;23.310;2022-09-23T07:27:13;6.18;;;4.28;;
28910;SDS011;16028;42.642;23.310;2022-09-23T07:29:44;6.47;;;4.88;;
28910;SDS011;16028;42.642;23.310;2022-09-23T07:32:12;8.73;;;5.30;;
28910;SDS011;16028;42.642;23.310;2022-09-23T07:34:41;5.28;;;4.78;;
28910;SDS011;16028;42.642;23.310;2022-09-23T07:37:08;7.95;;;5.80;;
28910;SDS011;16028;42.642;23.310;2022-09-23T07:39:35;8.73;;;6.10;;
28910;SDS011;16028;42.642;23.310;2022-09-23T07:42:04;8.40;;;5.63;;
28910;SDS011;16028;42.642;23.310;2022-09-23T07:44:31;8.88;;;5.85;;
28910;SDS011;16028;42.642;23.310;2022-09-23T07:46:59;6.25;;;5.28;;
28910;SDS011;16028;42.642;23.310;2022-09-23T07:49:26;7.50;;;5.75;;
28910;SDS011;16028;42.642;23.310;2022-09-23T07:51:53;8.27;;;5.57;;
28910;SDS011;16028;42.642;23.310;2022-09-23T07:54:20;7.32;;;5.05;;
28910;SDS011;16028;42.642;23.310;2022-09-23T07:56:49;8.13;;;4.45;;
28910;SDS011;16028;42.642;23.310;2022-09-23T07:59:17;7.38;;;4.55;;
28910;SDS011;16028;42.642;23.310;2022-09-23T08:01:45;8.98;;;4.60;;
28910;SDS011;16028;42.642;23.310;2022-09-23T08:04:15;8.68;;;6.00;;
28910;SDS011;16028;42.642;23.310;2022-09-23T08:06:44;5.53;;;4.93;;
28910;SDS011;16028;42.642;23.310;2022-09-23T08:09:13;7.47;;;4.85;;
28910;SDS011;16028;42.642;23.310;2022-09-23T08:11:41;8.23;;;5.13;;
28910;SDS011;16028;42.642;23.310;2022-09-23T08:14:08;7.50;;;4.97;;
28910;SDS011;16028;42.642;23.310;2022-09-23T08:16:35;5.03;;;4.40;;
28910;SDS011;16028;42.642;23.310;2022-09-23T08:19:02;5.63;;;4.60;;
28910;SDS011;16028;42.642;23.310;2022-09-23T08:21:31;5.80;;;4.65;;
28910;SDS011;16028;42.642;23.310;2022-09-23T08:23:57;5.10;;;4.60;;
28910;SDS011;16028;42.642;23.310;2022-09-23T08:26:24;6.60;;;4.82;;
28910;SDS011;16028;42.642;23.310;2022-09-23T08:28:51;7.25;;;4.78;;
28910;SDS011;16028;42.642;23.310;2022-09-23T08:31:18;7.07;;;5.20;;
28910;SDS011;16028;42.642;23.310;2022-09-23T08:33:45;5.63;;;4.35;;
28910;SDS011;16028;42.642;23.310;2022-09-23T08:36:12;4.50;;;3.83;;
28910;SDS011;16028;42.642;23.310;2022-09-23T08:38:40;6.05;;;4.00;;
28910;SDS011;16028;42.642;23.310;2022-09-23T08:41:08;5.05;;;4.20;;
28910;SDS011;16028;42.642;23.310;2022-09-23T08:43:43;5.75;;;4.35;;
28910;SDS011;16028;42.642;23.310;2022-09-23T08:46:12;5.25;;;4.18;;
28910;SDS011;16028;42.642;23.310;2022-09-23T08:51:14;5.28;;;4.40;;
28910;SDS011;16028;42.642;23.310;2022-09-23T08:53:49;4.38;;;3.92;;
28910;SDS011;16028;42.642;23.310;2022-09-23T08:56:16;5.30;;;4.05;;
28910;SDS011;16028;42.642;23.310;2022-09-23T08:58:48;5.65;;;4.38;;
28910;SDS011;16028;42.642;23.310;2022-09-23T09:01:25;4.50;;;4.00;;
28910;SDS011;16028;42.642;23.310;2022-09-23T09:03:59;5.43;;;4.05;;
28910;SDS011;16028;42.642;23.310;2022-09-23T09:06:28;7.93;;;3.65;;
28910;SDS011;16028;42.642;23.310;2022-09-23T09:09:01;4.97;;;3.88;;
28910;SDS011;16028;42.642;23.310;2022-09-23T09:11:31;5.72;;;3.55;;
28910;SDS011;16028;42.642;23.310;2022-09-23T09:14:04;6.10;;;3.47;;
28910;SDS011;16028;42.642;23.310;2022-09-23T09:16:46;4.97;;;4.47;;
28910;SDS011;16028;42.642;23.310;2022-09-23T09:19:39;4.47;;;3.50;;
28910;SDS011;16028;42.642;23.310;2022-09-23T09:22:21;5.32;;;3.67;;
28910;SDS011;16028;42.642;23.310;2022-09-23T09:25:02;5.00;;;3.70;;
28910;SDS011;16028;42.642;23.310;2022-09-23T09:27:40;8.75;;;3.35;;
28910;SDS011;16028;42.642;23.310;2022-09-23T09:30:09;3.45;;;2.97;;
28910;SDS011;16028;42.642;23.310;2022-09-23T09:32:39;5.88;;;3.15;;
28910;SDS011;16028;42.642;23.310;2022-09-23T09:35:15;3.47;;;3.08;;
28910;SDS011;16028;42.642;23.310;2022-09-23T09:37:48;4.40;;;3.22;;
28910;SDS011;16028;42.642;23.310;2022-09-23T09:40:17;3.78;;;3.25;;
28910;SDS011;16028;42.642;23.310;2022-09-23T09:42:45;2.90;;;2.70;;
28910;SDS011;16028;42.642;23.310;2022-09-23T09:45:15;3.05;;;2.75;;
28910;SDS011;16028;42.642;23.310;2022-09-23T09:47:52;3.38;;;3.08;;
28910;SDS011;16028;42.642;23.310;2022-09-23T09:50:40;4.13;;;3.10;;
28910;SDS011;16028;42.642;23.310;2022-09-23T09:53:19;3.90;;;2.85;;
28910;SDS011;16028;42.642;23.310;2022-09-23T09:55:58;4.70;;;3.03;;
28910;SDS011;16028;42.642;23.310;2022-09-23T09:58:39;3.13;;;2.83;;
28910;SDS011;16028;42.642;23.310;2022-09-23T10:01:18;3.00;;;2.70;;
28910;SDS011;16028;42.642;23.310;2022-09-23T10:03:47;5.20;;;2.70;;
28910;SDS011;16028;42.642;23.310;2022-09-23T10:06:16;4.22;;;3.75;;
28910;SDS011;16028;42.642;23.310;2022-09-23T10:12:00;3.50;;;2.70;;
28910;SDS011;16028;42.642;23.310;2022-09-23T10:14:32;3.45;;;2.35;;
28910;SDS011;16028;42.642;23.310;2022-09-23T10:17:18;7.45;;;2.45;;
28910;SDS011;16028;42.642;23.310;2022-09-23T10:19:47;5.65;;;2.63;;
28910;SDS011;16028;42.642;23.310;2022-09-23T10:22:19;2.92;;;2.40;;
28910;SDS011;16028;42.642;23.310;2022-09-23T10:24:51;2.58;;;2.38;;
28910;SDS011;16028;42.642;23.310;2022-09-23T10:27:28;2.70;;;2.50;;
28910;SDS011;16028;42.642;23.310;2022-09-23T10:29:57;2.92;;;2.55;;
28910;SDS011;16028;42.642;23.310;2022-09-23T10:32:27;2.60;;;2.40;;
28910;SDS011;16028;42.642;23.310;2022-09-23T10:34:57;4.35;;;2.92;;
28910;SDS011;16028;42.642;23.310;2022-09-23T10:37:29;2.60;;;2.40;;
28910;SDS011;16028;42.642;23.310;2022-09-23T10:39:58;2.38;;;2.17;;
28910;SDS011;16028;42.642;23.310;2022-09-23T10:46:02;4.32;;;2.13;;
28910;SDS011;16028;42.642;23.310;2022-09-23T10:48:50;4.22;;;2.45;;
28910;SDS011;16028;42.642;23.310;2022-09-23T10:51:35;3.33;;;2.33;;
28910;SDS011;16028;42.642;23.310;2022-09-23T10:54:12;2.20;;;1.83;;
28910;SDS011;16028;42.642;23.310;2022-09-23T10:56:50;3.63;;;1.98;;
28910;SDS011;16028;42.642;23.310;2022-09-23T10:59:32;2.90;;;2.67;;
28910;SDS011;16028;42.642;23.310;2022-09-23T11:02:14;2.50;;;1.95;;
28910;SDS011;16028;42.642;23.310;2022-09-23T11:04:58;4.47;;;1.85;;
28910;SDS011;16028;42.642;23.310;2022-09-23T11:07:52;2.22;;;2.00;;
28910;SDS011;16028;42.642;23.310;2022-09-23T11:10:46;2.20;;;2.00;;
28910;SDS011;16028;42.642;23.310;2022-09-23T11:13:22;2.33;;;2.13;;
28910;SDS011;16028;42.642;23.310;2022-09-23T11:16:04;2.78;;;2.33;;
28910;SDS011;16028;42.642;23.310;2022-09-23T11:18:45;2.50;;;2.30;;
28910;SDS011;16028;42.642;23.310;2022-09-23T11:21:35;2.15;;;1.95;;
28910;SDS011;16028;42.642;23.310;2022-09-23T11:26:58;5.32;;;2.55;;
28910;SDS011;16028;42.642;23.310;2022-09-23T11:29:36;2.55;;;2.30;;
28910;SDS011;16028;42.642;23.310;2022-09-23T11:32:44;3.40;;;2.25;;
28910;SDS011;16028;42.642;23.310;2022-09-23T11:35:32;2.78;;;2.25;;
28910;SDS011;16028;42.642;23.310;2022-09-23T11:38:06;5.20;;;3.13;;
28910;SDS011;16028;42.642;23.310;2022-09-23T11:40:40;2.00;;;1.80;;
28910;SDS011;16028;42.642;23.310;2022-09-23T11:43:13;2.28;;;2.08;;
28910;SDS011;16028;42.642;23.310;2022-09-23T11:45:46;2.65;;;1.60;;
28910;SDS011;16028;42.642;23.310;2022-09-23T11:48:24;2.88;;;1.90;;
28910;SDS011;16028;42.642;23.310;2022-09-23T11:50:56;2.90;;;1.60;;
28910;SDS011;16028;42.642;23.310;2022-09-23T11:53:28;3.55;;;2.30;;
28910;SDS011;16028;42.642;23.310;2022-09-23T11:56:04;4.53;;;1.80;;
28910;SDS011;16028;42.642;23.310;2022-09-23T11:58:38;1.77;;;1.55;;
28910;SDS011;16028;42.642;23.310;2022-09-23T12:01:12;2.00;;;1.80;;
28910;SDS011;16028;42.642;23.310;2022-09-23T12:03:48;2.00;;;1.83;;
28910;SDS011;16028;42.642;23.310;2022-09-23T12:06:21;1.65;;;1.55;;
28910;SDS011;16028;42.642;23.310;2022-09-23T12:08:53;2.08;;;1.63;;
28910;SDS011;16028;42.642;23.310;2022-09-23T12:11:26;2.22;;;1.60;;
28910;SDS011;16028;42.642;23.310;2022-09-23T12:13:59;2.55;;;1.70;;
28910;SDS011;16028;42.642;23.310;2022-09-23T12:19:36;3.47;;;1.38;;
28910;SDS011;16028;42.642;23.310;2022-09-23T12:22:22;4.43;;;1.50;;
28910;SDS011;16028;42.642;23.310;2022-09-23T12:25:11;2.63;;;2.42;;
28910;SDS011;16028;42.642;23.310;2022-09-23T12:27:53;5.00;;;2.90;;
28910;SDS011;16028;42.642;23.310;2022-09-23T12:30:26;5.43;;;1.60;;
28910;SDS011;16028;42.642;23.310;2022-09-23T12:33:04;3.08;;;1.85;;
28910;SDS011;16028;42.642;23.310;2022-09-23T12:35:36;3.60;;;2.38;;
28910;SDS011;16028;42.642;23.310;2022-09-23T12:38:12;4.38;;;2.00;;
28910;SDS011;16028;42.642;23.310;2022-09-23T12:40:43;2.10;;;1.90;;
28910;SDS011;16028;42.642;23.310;2022-09-23T12:43:15;5.63;;;2.03;;
28910;SDS011;16028;42.642;23.310;2022-09-23T12:45:43;7.93;;;2.78;;
28910;SDS011;16028;42.642;23.310;2022-09-23T12:48:26;3.40;;;2.28;;
28910;SDS011;16028;42.642;23.310;2022-09-23T12:51:14;9.77;;;2.17;;
28910;SDS011;16028;42.642;23.310;2022-09-23T12:53:53;2.35;;;1.90;;
28910;SDS011;16028;42.642;23.310;2022-09-23T12:56:23;6.28;;;2.10;;
28910;SDS011;16028;42.642;23.310;2022-09-23T12:58:58;2.40;;;1.98;;
28910;SDS011;16028;42.642;23.310;2022-09-23T13:03:54;3.15;;;2.22;;
28910;SDS011;16028;42.642;23.310;2022-09-23T13:06:42;3.22;;;2.00;;
28910;SDS011;16028;42.642;23.310;2022-09-23T13:09:23;4.45;;;2.30;;
28910;SDS011;16028;42.642;23.310;2022-09-23T13:11:55;3.47;;;2.17;;
28910;SDS011;16028;42.642;23.310;2022-09-23T13:14:25;3.72;;;2.28;;
28910;SDS011;16028;42.642;23.310;2022-09-23T13:16:53;4.60;;;2.17;;
28910;SDS011;16028;42.642;23.310;2022-09-23T13:19:42;7.80;;;2.38;;
28910;SDS011;16028;42.642;23.310;2022-09-23T13:22:12;8.18;;;2.33;;
28910;SDS011;16028;42.642;23.310;2022-09-23T13:24:40;4.53;;;2.00;;
28910;SDS011;16028;42.642;23.310;2022-09-23T13:27:13;4.13;;;2.65;;
28910;SDS011;16028;42.642;23.310;2022-09-23T13:29:45;6.85;;;2.00;;
28910;SDS011;16028;42.642;23.310;2022-09-23T13:32:16;2.05;;;1.83;;
28910;SDS011;16028;42.642;23.310;2022-09-23T13:34:45;4.03;;;1.85;;
28910;SDS011;16028;42.642;23.310;2022-09-23T13:37:22;3.60;;;1.85;;
28910;SDS011;16028;42.642;23.310;2022-09-23T13:40:04;2.08;;;1.70;;
28910;SDS011;16028;42.642;23.310;2022-09-23T13:42:32;2.15;;;1.95;;
28910;SDS011;16028;42.642;23.310;2022-09-23T13:45:02;6.45;;;1.92;;
28910;SDS011;16028;42.642;23.310;2022-09-23T13:47:30;3.67;;;1.98;;
28910;SDS011;16028;42.642;23.310;2022-09-23T13:50:02;6.97;;;1.80;;
28910;SDS011;16028;42.642;23.310;2022-09-23T13:52:31;2.28;;;2.08;;
28910;SDS011;16028;42.642;23.310;2022-09-23T13:54:58;2.35;;;2.15;;
28910;SDS011;16028;42.642;23.310;2022-09-23T13:57:26;2.70;;;1.60;;
28910;SDS011;16028;42.642;23.310;2022-09-23T13:59:58;2.10;;;1.88;;
28910;SDS011;16028;42.642;23.310;2022-09-23T14:02:26;2.22;;;2.03;;
28910;SDS011;16028;42.642;23.310;2022-09-23T14:04:55;2.17;;;1.60;;
28910;SDS011;16028;42.642;23.310;2022-09-23T14:07:23;2.03;;;1.70;;
28910;SDS011;16028;42.642;23.310;2022-09-23T14:09:53;3.63;;;2.22;;
28910;SDS011;16028;42.642;23.310;2022-09-23T14:12:21;2.28;;;2.08;;
28910;SDS011;16028;42.642;23.310;2022-09-23T14:14:48;2.40;;;1.90;;
28910;SDS011;16028;42.642;23.310;2022-09-23T14:17:17;2.25;;;2.05;;
28910;SDS011;16028;42.642;23.310;2022-09-23T14:19:48;6.10;;;2.17;;
28910;SDS011;16028;42.642;23.310;2022-09-23T14:22:22;2.60;;;2.00;;
28910;SDS011;16028;42.642;23.310;2022-09-23T14:24:51;3.92;;;2.30;;
28910;SDS011;16028;42.642;23.310;2022-09-23T14:27:23;2.60;;;1.90;;
28910;SDS011;16028;42.642;23.310;2022-09-23T14:29:56;2.85;;;1.92;;
28910;SDS011;16028;42.642;23.310;2022-09-23T14:32:24;3.28;;;2.20;;
28910;SDS011;16028;42.642;23.310;2022-09-23T14:37:43;2.35;;;2.15;;
28910;SDS011;16028;42.642;23.310;2022-09-23T14:40:31;2.33;;;1.90;;
28910;SDS011;16028;42.642;23.310;2022-09-23T14:43:01;2.50;;;2.00;;
28910;SDS011;16028;42.642;23.310;2022-09-23T14:45:31;3.30;;;2.00;;
28910;SDS011;16028;42.642;23.310;2022-09-23T14:48:01;2.10;;;1.90;;
28910;SDS011;16028;42.642;23.310;2022-09-23T14:50:31;3.38;;;1.85;;
28910;SDS011;16028;42.642;23.310;2022-09-23T14:53:03;2.53;;;2.15;;
28910;SDS011;16028;42.642;23.310;2022-09-23T14:55:33;2.03;;;1.92;;
28910;SDS011;16028;42.642;23.310;2022-09-23T14:58:03;3.25;;;2.03;;
28910;SDS011;16028;42.642;23.310;2022-09-23T15:00:36;2.15;;;1.95;;
28910;SDS011;16028;42.642;23.310;2022-09-23T15:03:04;2.20;;;2.00;;
28910;SDS011;16028;42.642;23.310;2022-09-23T15:05:40;2.67;;;2.45;;
28910;SDS011;16028;42.642;23.310;2022-09-23T15:08:16;3.58;;;2.70;;
28910;SDS011;16028;42.642;23.310;2022-09-23T15:10:46;5.53;;;2.83;;
28910;SDS011;16028;42.642;23.310;2022-09-23T15:13:14;6.35;;;2.70;;
28910;SDS011;16028;42.642;23.310;2022-09-23T15:15:47;4.63;;;2.47;;
28910;SDS011;16028;42.642;23.310;2022-09-23T15:18:21;5.43;;;2.60;;
28910;SDS011;16028;42.642;23.310;2022-09-23T15:20:50;4.50;;;2.47;;
28910;SDS011;16028;42.642;23.310;2022-09-23T15:23:31;7.03;;;2.38;;